Time;durP1;ratioP1;P1;durP2;ratioP2;P2;SDS_P1;SDS_P2;PMS_P1;PMS_P2;Temp;Humidity;BMP_temperature;BMP_pressure;BME280_temperature;BME280_humidity;BME280_pressure;Samples;Min_cycle;Max_cycle;Signal;HPM_P1;HPM_P2
2022/08/10 00:00:20;;;;;;;6.22;2.92;;;20.40;82.80;;;;;;4991744;28;20038;-72
2022/08/10 00:02:55;;;;;;;5.57;3.28;;;20.40;83.00;;;;;;5005043;28;20044;-71
2022/08/10 00:05:21;;;;;;;5.50;3.22;;;20.30;84.20;;;;;;5005720;28;20022;-72
2022/08/10 00:07:47;;;;;;;5.90;3.08;;;20.30;84.70;;;;;;4974130;28;20031;-71
2022/08/10 00:10:14;;;;;;;7.57;3.58;;;20.30;83.60;;;;;;4990391;28;20026;-72
2022/08/10 00:12:40;;;;;;;6.40;3.45;;;20.20;82.80;;;;;;4990337;28;20041;-72
2022/08/10 00:15:06;;;;;;;5.50;3.42;;;20.20;82.50;;;;;;4990231;28;20389;-71
2022/08/10 00:17:32;;;;;;;4.70;2.85;;;20.20;83.00;;;;;;4991478;28;20042;-72
2022/08/10 00:19:58;;;;;;;8.50;3.47;;;20.20;82.20;;;;;;4973978;28;20100;-72
2022/08/10 00:22:23;;;;;;;5.43;3.33;;;20.20;82.20;;;;;;4991387;28;20026;-72
2022/08/10 00:24:49;;;;;;;6.27;3.33;;;20.20;81.80;;;;;;4994860;28;20034;-72
2022/08/10 00:27:15;;;;;;;7.93;3.70;;;20.20;82.60;;;;;;4995194;28;20039;-72
2022/08/10 00:29:41;;;;;;;5.97;3.30;;;20.10;83.10;;;;;;4995624;28;20027;-72
2022/08/10 00:32:06;;;;;;;5.87;3.50;;;20.10;83.00;;;;;;4995226;28;20053;-72
2022/08/10 00:34:33;;;;;;;5.90;3.30;;;20.10;83.10;;;;;;4994758;28;20030;-72
2022/08/10 00:36:59;;;;;;;5.60;3.75;;;20.00;82.40;;;;;;4993845;28;20026;-72
2022/08/10 00:39:26;;;;;;;7.03;3.40;;;20.00;82.30;;;;;;4995149;28;20092;-72
2022/08/10 00:41:51;;;;;;;;;;;20.00;82.30;;;;;;4994301;28;20121;-72
2022/08/10 00:44:17;;;;;;;9.70;3.38;;;20.00;82.70;;;;;;4993499;28;19945;-72
2022/08/10 00:46:43;;;;;;;3.80;2.93;;;20.00;82.20;;;;;;4994893;28;20034;-71
2022/08/10 00:49:09;;;;;;;6.83;3.13;;;20.00;82.50;;;;;;4994612;28;20054;-72
2022/08/10 00:51:34;;;;;;;6.23;3.50;;;19.90;82.50;;;;;;4993529;28;20121;-71
2022/08/10 00:54:00;;;;;;;5.20;3.37;;;19.90;82.40;;;;;;5009657;28;20110;-72
2022/08/10 00:56:26;;;;;;;7.30;3.87;;;19.80;83.50;;;;;;4993529;28;20089;-72
2022/08/10 00:58:52;;;;;;;7.03;3.33;;;19.80;83.80;;;;;;5009667;28;20042;-72
2022/08/10 01:01:18;;;;;;;5.57;3.20;;;19.70;83.70;;;;;;4994787;28;20034;-72
2022/08/10 01:03:43;;;;;;;5.77;3.47;;;19.70;83.60;;;;;;4993740;28;20018;-72
2022/08/10 01:06:29;;;;;;;7.70;4.13;;;19.60;83.90;;;;;;4994467;28;20030;-72
2022/08/10 01:09:10;;;;;;;4.25;3.28;;;19.60;84.90;;;;;;4978027;28;20026;-72
2022/08/10 01:11:45;;;;;;;8.05;3.35;;;19.60;85.30;;;;;;4993372;28;20030;-72
2022/08/10 01:14:48;;;;;;;4.55;3.60;;;19.60;85.60;;;;;;4994108;28;20375;-72
2022/08/10 01:17:25;;;;;;;5.65;3.38;;;19.50;85.40;;;;;;4993472;28;20422;-72
2022/08/10 01:20:17;;;;;;;7.07;3.70;;;19.50;85.60;;;;;;4961486;28;20093;-72
2022/08/10 01:23:40;;;;;;;5.00;3.30;;;19.50;86.80;;;;;;4994217;28;20046;-72
2022/08/10 01:26:18;;;;;;;4.75;3.20;;;19.40;86.50;;;;;;4953254;29;20035;-72
2022/08/10 01:29:06;;;;;;;7.53;3.67;;;19.40;87.00;;;;;;4936924;29;20069;-72
2022/08/10 01:31:37;;;;;;;7.22;4.00;;;19.30;87.60;;;;;;4981632;28;20406;-71
2022/08/10 01:34:08;;;;;;;6.55;3.50;;;19.30;87.60;;;;;;5008057;28;20113;-71
2022/08/10 01:39:04;;;;;;;3.85;2.97;;;19.30;87.80;;;;;;5052686;23;20080;-71
2022/08/10 01:41:39;;;;;;;7.80;3.40;;;19.20;88.00;;;;;;4996207;28;20135;-71
2022/08/10 01:44:13;;;;;;;5.30;3.45;;;19.20;87.80;;;;;;4980108;28;20529;-71
2022/08/10 01:46:46;;;;;;;7.60;3.25;;;19.20;88.30;;;;;;4964439;28;20040;-71
2022/08/10 01:49:13;;;;;;;4.97;3.30;;;19.20;88.80;;;;;;4961656;28;20384;-71
2022/08/10 01:51:42;;;;;;;5.65;3.40;;;19.10;88.00;;;;;;4976374;28;20073;-71
2022/08/10 01:54:13;;;;;;;4.97;3.00;;;19.10;87.70;;;;;;4993298;28;20485;-71
2022/08/10 01:56:41;;;;;;;5.47;3.15;;;19.10;88.10;;;;;;4976583;28;20046;-71
2022/08/10 01:59:32;;;;;;;6.13;3.47;;;19.10;88.00;;;;;;4976751;28;20177;-71
2022/08/10 02:02:12;;;;;;;3.72;3.08;;;19.00;88.50;;;;;;4976311;28;20038;-71
2022/08/10 02:04:42;;;;;;;4.00;2.88;;;19.00;88.00;;;;;;4981188;28;20022;-71
2022/08/10 02:07:12;;;;;;;7.05;3.45;;;19.00;89.20;;;;;;4995113;28;20030;-71
2022/08/10 02:09:39;;;;;;;4.88;3.53;;;18.90;89.80;;;;;;4995734;28;20033;-71
2022/08/10 02:12:17;;;;;;;5.97;3.50;;;18.90;90.30;;;;;;4979286;28;20756;-71
2022/08/10 02:14:47;;;;;;;6.10;3.17;;;18.90;90.70;;;;;;5011355;28;20103;-71
2022/08/10 02:17:17;;;;;;;4.03;3.08;;;18.80;91.30;;;;;;5011054;28;20528;-71
2022/08/10 02:19:42;;;;;;;6.72;3.58;;;18.70;91.40;;;;;;4995293;28;20044;-71
2022/08/10 02:22:08;;;;;;;5.60;2.90;;;18.70;91.90;;;;;;5011057;28;20030;-71
2022/08/10 02:24:34;;;;;;;5.27;3.43;;;18.70;92.50;;;;;;5011240;28;20040;-71
2022/08/10 02:27:00;;;;;;;6.57;3.22;;;18.60;92.80;;;;;;5011387;28;20034;-71
2022/08/10 02:29:26;;;;;;;4.68;2.60;;;18.60;93.10;;;;;;5011722;28;20194;-70
2022/08/10 02:31:52;;;;;;;5.17;3.10;;;18.60;93.60;;;;;;4995239;28;20144;-71
2022/08/10 02:34:17;;;;;;;5.10;2.90;;;18.50;93.90;;;;;;5011125;28;20029;-71
2022/08/10 02:36:46;;;;;;;5.17;2.90;;;18.50;93.80;;;;;;5012436;28;20033;-70
2022/08/10 02:39:12;;;;;;;5.88;3.15;;;18.50;94.00;;;;;;5011141;28;20022;-71
2022/08/10 02:41:58;;;;;;;5.13;2.63;;;18.40;94.00;;;;;;5012533;28;20379;-70
2022/08/10 02:44:55;;;;;;;5.63;3.45;;;18.40;93.80;;;;;;4994751;28;20041;-71
2022/08/10 02:47:49;;;;;;;4.22;2.58;;;18.40;94.20;;;;;;4994531;28;20026;-71
2022/08/10 02:50:20;;;;;;;5.78;2.60;;;18.30;94.20;;;;;;5012526;28;20026;-71
2022/08/10 02:52:49;;;;;;;6.10;3.47;;;18.30;94.20;;;;;;4994262;28;20026;-70
2022/08/10 02:55:32;;;;;;;6.10;3.03;;;18.30;94.80;;;;;;4995054;28;20398;-70
2022/08/10 02:58:07;;;;;;;4.95;2.88;;;18.30;95.50;;;;;;4994892;28;20406;-71
2022/08/10 03:00:43;;;;;;;3.75;2.83;;;18.20;95.10;;;;;;4995735;28;20125;-71
2022/08/10 03:03:24;;;;;;;3.90;2.80;;;18.20;95.10;;;;;;4979172;28;20104;-71
2022/08/10 03:05:54;;;;;;;4.97;2.72;;;18.10;95.10;;;;;;4994115;28;20018;-71
2022/08/10 03:08:23;;;;;;;3.92;3.20;;;18.10;95.90;;;;;;4994127;28;20496;-71
2022/08/10 03:10:49;;;;;;;6.00;3.10;;;18.10;96.40;;;;;;4994359;28;20593;-71
2022/08/10 03:13:15;;;;;;;7.43;3.13;;;18.00;96.20;;;;;;4994317;28;20104;-70
2022/08/10 03:15:40;;;;;;;4.23;2.73;;;18.00;96.40;;;;;;4994472;28;20379;-70
2022/08/10 03:18:06;;;;;;;6.90;3.00;;;18.00;96.00;;;;;;4994690;28;20529;-70
2022/08/10 03:20:37;;;;;;;6.13;2.90;;;18.00;96.70;;;;;;4994691;28;20646;-70
2022/08/10 03:23:04;;;;;;;6.03;3.08;;;18.00;96.50;;;;;;4994081;28;20109;-70
2022/08/10 03:25:30;;;;;;;4.95;2.90;;;17.90;96.90;;;;;;4994623;28;20037;-71
2022/08/10 03:27:56;;;;;;;5.57;2.90;;;17.90;97.10;;;;;;5010797;28;20029;-71
2022/08/10 03:30:22;;;;;;;4.40;2.60;;;17.80;97.90;;;;;;5010773;28;20034;-71
2022/08/10 03:32:47;;;;;;;4.43;3.23;;;17.80;97.50;;;;;;5010453;28;20026;-70
2022/08/10 03:35:13;;;;;;;6.50;3.10;;;17.80;97.90;;;;;;5010044;28;20042;-70
2022/08/10 03:37:39;;;;;;;6.73;3.10;;;17.80;97.90;;;;;;5009996;28;20129;-71
2022/08/10 03:40:06;;;;;;;4.33;2.73;;;17.80;97.90;;;;;;4994325;28;20113;-71
2022/08/10 03:42:32;;;;;;;6.40;3.30;;;17.80;98.00;;;;;;4994063;28;20572;-71
2022/08/10 03:44:58;;;;;;;6.97;2.70;;;17.70;97.70;;;;;;4993856;28;20061;-71
2022/08/10 03:47:24;;;;;;;5.87;2.63;;;17.70;97.80;;;;;;5010208;28;20040;-71
2022/08/10 03:49:50;;;;;;;5.53;3.07;;;17.70;97.70;;;;;;5010394;28;20405;-71
2022/08/10 03:52:16;;;;;;;6.27;2.57;;;17.70;98.10;;;;;;4993633;28;20345;-70
2022/08/10 03:54:42;;;;;;;4.68;3.13;;;17.70;97.60;;;;;;4993709;28;20025;-71
2022/08/10 03:57:08;;;;;;;3.50;2.43;;;17.60;97.90;;;;;;5010246;28;20061;-70
2022/08/10 03:59:35;;;;;;;4.97;2.57;;;17.60;97.50;;;;;;5015514;28;20482;-70
2022/08/10 04:02:01;;;;;;;5.60;2.70;;;17.60;98.00;;;;;;4998508;28;20458;-70
2022/08/10 04:04:27;;;;;;;5.07;3.08;;;17.60;97.70;;;;;;4997241;28;20029;-70
2022/08/10 04:06:55;;;;;;;5.10;2.90;;;17.60;98.10;;;;;;5015466;28;20040;-70
2022/08/10 04:09:24;;;;;;;5.13;3.00;;;17.60;97.10;;;;;;4998575;28;20485;-70
2022/08/10 04:11:49;;;;;;;4.45;2.95;;;17.60;97.50;;;;;;4998031;28;20026;-70
2022/08/10 04:14:15;;;;;;;3.53;2.53;;;17.50;97.50;;;;;;5015040;28;20585;-71
2022/08/10 04:16:41;;;;;;;8.10;2.83;;;17.60;97.50;;;;;;5015312;28;20033;-70
2022/08/10 04:19:06;;;;;;;4.07;2.47;;;17.50;98.00;;;;;;5013925;28;20512;-71
2022/08/10 04:21:36;;;;;;;5.00;3.27;;;17.40;97.80;;;;;;5013601;28;20032;-70
2022/08/10 04:24:03;;;;;;;6.70;3.40;;;17.40;98.30;;;;;;4997198;28;20544;-70
2022/08/10 04:26:28;;;;;;;5.78;2.90;;;17.40;98.70;;;;;;4981287;28;20037;-71
2022/08/10 04:28:54;;;;;;;7.43;3.00;;;17.40;99.00;;;;;;5014869;28;20030;-70
2022/08/10 04:31:20;;;;;;;6.00;3.90;;;17.40;99.10;;;;;;5015023;28;20418;-70
2022/08/10 04:33:48;;;;;;;4.33;2.73;;;17.40;99.60;;;;;;4997025;28;20528;-70
2022/08/10 04:36:15;;;;;;;7.43;3.42;;;17.40;99.60;;;;;;5012261;28;20025;-71
2022/08/10 04:38:41;;;;;;;3.95;2.63;;;17.40;99.50;;;;;;4995733;28;20099;-70
2022/08/10 04:41:07;;;;;;;4.60;3.30;;;17.40;99.90;;;;;;5013649;28;20486;-70
2022/08/10 04:43:33;;;;;;;3.00;2.63;;;17.40;99.30;;;;;;5012972;28;20557;-70
2022/08/10 04:45:59;;;;;;;5.03;2.97;;;17.40;99.90;;;;;;5013390;28;20045;-70
2022/08/10 04:48:24;;;;;;;5.83;2.47;;;17.50;99.90;;;;;;5013742;28;20018;-70
2022/08/10 04:50:51;;;;;;;5.67;2.90;;;17.50;99.90;;;;;;5014371;28;20030;-70
2022/08/10 04:53:16;;;;;;;7.13;4.03;;;17.40;99.90;;;;;;5014204;28;20056;-70
2022/08/10 04:55:42;;;;;;;4.40;2.83;;;17.50;99.90;;;;;;5014405;28;20500;-69
2022/08/10 04:58:08;;;;;;;3.57;2.77;;;17.50;99.90;;;;;;4996847;28;20132;-70
2022/08/10 05:00:34;;;;;;;3.90;3.13;;;17.60;99.90;;;;;;4996651;28;20064;-70
2022/08/10 05:03:00;;;;;;;6.20;3.20;;;17.60;99.90;;;;;;5013855;28;20498;-70
2022/08/10 05:05:25;;;;;;;2.80;2.37;;;17.60;99.90;;;;;;5013233;28;20099;-70
2022/08/10 05:07:51;;;;;;;8.70;2.67;;;17.60;99.90;;;;;;4996876;28;20025;-70
2022/08/10 05:10:17;;;;;;;4.83;3.30;;;17.60;99.90;;;;;;5013620;28;20382;-70
2022/08/10 05:12:43;;;;;;;9.27;3.73;;;17.60;99.90;;;;;;5013901;28;20588;-70
2022/08/10 05:15:10;;;;;;;11.10;3.50;;;17.70;99.90;;;;;;5013778;28;20405;-70
2022/08/10 05:17:36;;;;;;;8.57;2.92;;;17.70;99.90;;;;;;5013663;28;20041;-70
2022/08/10 05:20:04;;;;;;;5.23;2.50;;;17.70;99.90;;;;;;5013570;28;20034;-70
2022/08/10 05:22:29;;;;;;;4.82;3.45;;;17.80;99.90;;;;;;5010309;28;20835;-70
2022/08/10 05:24:55;;;;;;;4.23;3.00;;;17.80;99.90;;;;;;5004433;28;20041;-70
2022/08/10 05:27:21;;;;;;;5.10;2.97;;;17.90;99.90;;;;;;4993998;28;20027;-72
2022/08/10 05:29:46;;;;;;;4.10;2.73;;;17.90;99.90;;;;;;4993889;28;20105;-71
2022/08/10 05:32:12;;;;;;;6.03;2.77;;;18.00;99.90;;;;;;4993554;28;20106;-71
2022/08/10 05:34:38;;;;;;;4.87;3.00;;;18.00;99.90;;;;;;4995001;28;20064;-70
2022/08/10 05:37:04;;;;;;;12.57;3.40;;;18.00;99.90;;;;;;5012040;28;20029;-70
2022/08/10 05:39:30;;;;;;;5.60;3.28;;;18.00;99.90;;;;;;4992760;28;20023;-70
2022/08/10 05:41:56;;;;;;;5.40;2.80;;;18.10;99.90;;;;;;4977279;28;20030;-71
2022/08/10 05:44:22;;;;;;;5.60;3.07;;;18.10;99.90;;;;;;4994618;28;20037;-71
2022/08/10 05:46:48;;;;;;;4.60;2.50;;;18.10;99.60;;;;;;4963060;28;20030;-70
2022/08/10 05:49:14;;;;;;;4.38;2.55;;;18.10;99.90;;;;;;5012871;28;20196;-70
2022/08/10 05:51:40;;;;;;;7.87;3.00;;;18.20;99.90;;;;;;5012067;28;20113;-70
2022/08/10 05:54:13;;;;;;;10.73;2.90;;;18.20;99.90;;;;;;5011707;28;20425;-70
2022/08/10 05:56:40;;;;;;;3.65;2.83;;;18.30;99.90;;;;;;5013127;28;20084;-70
2022/08/10 05:59:06;;;;;;;8.73;3.10;;;18.30;99.90;;;;;;5012055;28;20064;-69
2022/08/10 06:01:31;;;;;;;11.23;3.40;;;18.30;99.90;;;;;;5012401;28;20034;-70
2022/08/10 06:03:57;;;;;;;15.97;4.07;;;18.40;99.90;;;;;;5012299;28;20026;-70
2022/08/10 06:06:23;;;;;;;8.53;3.70;;;18.40;99.90;;;;;;4996157;28;20111;-70
2022/08/10 06:08:49;;;;;;;13.37;3.50;;;18.50;99.90;;;;;;4991624;28;20026;-72
2022/08/10 06:11:14;;;;;;;10.23;3.10;;;18.60;99.90;;;;;;5002601;28;20474;-71
2022/08/10 06:16:27;;;;;;;5.90;3.10;;;18.70;99.90;;;;;;4967882;28;20438;-71
2022/08/10 06:18:52;;;;;;;7.27;2.80;;;18.80;99.90;;;;;;4978343;28;20038;-73
2022/08/10 06:21:18;;;;;;;8.17;3.30;;;18.80;99.90;;;;;;4992909;28;20030;-70
2022/08/10 06:23:44;;;;;;;7.05;3.13;;;18.90;99.90;;;;;;5013176;28;20026;-71
2022/08/10 06:26:10;;;;;;;9.30;3.87;;;19.00;99.90;;;;;;5011540;28;20042;-72
2022/08/10 06:28:55;;;;;;;3.77;2.80;;;19.00;99.90;;;;;;4995868;28;20116;-72
2022/08/10 06:31:21;;;;;;;7.72;2.95;;;19.10;99.90;;;;;;5008611;28;20033;-70
2022/08/10 06:33:47;;;;;;;4.97;2.30;;;19.20;97.80;;;;;;5010344;28;20512;-70
2022/08/10 06:36:13;;;;;;;3.07;2.37;;;19.30;98.00;;;;;;5010912;28;20069;-71
2022/08/10 06:38:39;;;;;;;2.97;2.45;;;19.40;98.70;;;;;;4995088;28;20037;-71
2022/08/10 06:41:14;;;;;;;4.50;2.30;;;19.50;98.10;;;;;;4994486;28;20056;-72
2022/08/10 06:43:43;;;;;;;4.85;2.60;;;19.50;97.80;;;;;;4994155;28;20133;-72
2022/08/10 06:46:16;;;;;;;7.50;2.75;;;19.60;99.90;;;;;;4979661;28;20405;-72
2022/08/10 06:48:54;;;;;;;6.35;2.40;;;19.70;96.10;;;;;;4995960;28;20040;-73
2022/08/10 06:51:29;;;;;;;4.78;1.95;;;19.80;94.80;;;;;;4993849;28;20421;-72
2022/08/10 06:53:58;;;;;;;5.43;2.72;;;19.80;99.20;;;;;;4991530;28;20017;-73
2022/08/10 06:56:26;;;;;;;5.28;2.35;;;19.90;99.90;;;;;;5000206;28;20053;-74
2022/08/10 06:59:04;;;;;;;5.00;2.53;;;20.00;99.40;;;;;;4995671;28;20022;-71
2022/08/10 07:01:32;;;;;;;2.85;2.25;;;20.10;99.90;;;;;;4980619;28;20037;-71
2022/08/10 07:04:30;;;;;;;4.15;2.47;;;20.10;99.90;;;;;;4977994;28;20044;-71
2022/08/10 07:06:56;;;;;;;5.45;2.90;;;20.20;99.90;;;;;;4978355;28;20045;-71
2022/08/10 07:09:22;;;;;;;4.18;2.38;;;20.30;99.90;;;;;;4992522;28;20054;-70
2022/08/10 07:11:48;;;;;;;3.50;2.23;;;20.40;95.10;;;;;;4974817;28;20486;-70
2022/08/10 07:14:15;;;;;;;3.70;1.67;;;20.50;92.80;;;;;;4974174;28;20033;-71
2022/08/10 07:16:41;;;;;;;3.10;1.95;;;20.80;88.50;;;;;;4974652;28;20077;-70
2022/08/10 07:19:09;;;;;;;5.33;1.87;;;21.00;87.30;;;;;;4975023;28;20034;-70
2022/08/10 07:21:36;;;;;;;4.22;2.10;;;21.20;86.70;;;;;;4974864;28;20023;-71
2022/08/10 07:24:03;;;;;;;4.13;1.75;;;21.40;85.10;;;;;;4985166;28;20433;-71
2022/08/10 07:26:29;;;;;;;6.32;2.30;;;21.50;86.00;;;;;;4993939;28;20026;-71
2022/08/10 07:28:55;;;;;;;;;;;21.60;85.30;;;;;;5010639;28;20038;-71
2022/08/10 07:31:21;;;;;;;4.93;2.05;;;21.70;83.60;;;;;;4994127;28;20005;-71
2022/08/10 07:33:48;;;;;;;5.90;2.43;;;21.90;81.40;;;;;;5010292;28;20030;-71
2022/08/10 07:36:14;;;;;;;3.75;1.88;;;22.00;80.80;;;;;;5009893;28;20034;-71
2022/08/10 07:38:40;;;;;;;4.33;1.70;;;22.20;77.50;;;;;;5010635;28;20037;-71
2022/08/10 07:41:06;;;;;;;5.07;2.07;;;22.30;75.80;;;;;;5011222;28;20017;-70
2022/08/10 07:43:36;;;;;;;6.80;2.63;;;22.40;76.60;;;;;;5009541;28;20022;-71
2022/08/10 07:46:06;;;;;;;4.63;1.92;;;22.50;72.40;;;;;;5009961;28;20517;-71
2022/08/10 07:48:35;;;;;;;4.93;1.92;;;22.70;69.80;;;;;;5009800;28;20041;-71
2022/08/10 07:51:01;;;;;;;4.50;2.22;;;22.90;69.70;;;;;;5009482;28;20034;-71
2022/08/10 07:53:31;;;;;;;4.38;2.05;;;23.00;71.30;;;;;;5008821;28;20026;-71
2022/08/10 07:55:57;;;;;;;4.13;1.65;;;23.00;68.70;;;;;;5009781;28;20113;-71
2022/08/10 07:58:27;;;;;;;4.95;1.98;;;23.10;66.80;;;;;;5010910;28;20405;-70
2022/08/10 08:00:53;;;;;;;3.40;1.90;;;23.20;66.30;;;;;;5009808;28;20048;-71
2022/08/10 08:03:23;;;;;;;3.40;1.77;;;23.30;66.40;;;;;;5009372;28;20042;-71
2022/08/10 08:05:49;;;;;;;4.07;1.88;;;23.40;64.90;;;;;;4993570;28;20449;-70
2022/08/10 08:08:15;;;;;;;2.30;1.85;;;23.40;64.90;;;;;;5009766;28;20164;-70
2022/08/10 08:10:41;;;;;;;3.77;1.90;;;23.50;64.40;;;;;;4993759;28;20104;-71
2022/08/10 08:13:07;;;;;;;3.30;2.00;;;23.70;64.10;;;;;;4992920;28;20272;-70
2022/08/10 08:15:32;;;;;;;3.20;1.87;;;23.70;63.30;;;;;;5009337;28;20037;-70
2022/08/10 08:17:58;;;;;;;3.28;1.77;;;23.80;63.30;;;;;;5009712;28;20053;-71
2022/08/10 08:20:24;;;;;;;3.17;1.70;;;23.90;63.40;;;;;;5009556;28;20049;-71
2022/08/10 08:22:50;;;;;;;5.57;1.80;;;23.90;62.30;;;;;;5009341;28;20273;-71
2022/08/10 08:25:17;;;;;;;2.58;1.70;;;23.90;61.90;;;;;;5008722;28;20034;-71
2022/08/10 08:27:44;;;;;;;5.13;2.00;;;24.00;62.20;;;;;;5008822;28;20129;-71
2022/08/10 08:30:10;;;;;;;4.10;1.92;;;24.10;61.80;;;;;;5010603;28;20022;-71
2022/08/10 08:32:37;;;;;;;6.47;2.33;;;24.20;61.00;;;;;;5010488;28;20026;-71
2022/08/10 08:35:08;;;;;;;3.50;1.45;;;24.30;61.10;;;;;;4984959;28;20095;-70
2022/08/10 08:37:36;;;;;;;3.63;2.40;;;24.30;60.70;;;;;;5009474;28;20065;-71
2022/08/10 08:40:17;;;;;;;2.20;1.90;;;24.30;60.60;;;;;;5010202;28;20038;-70
2022/08/10 08:43:36;;;;;;;5.88;2.25;;;24.40;61.30;;;;;;5009487;28;20135;-70
2022/08/10 08:46:32;;;;;;;4.05;2.17;;;24.40;59.50;;;;;;5014170;28;20109;-71
2022/08/10 08:49:19;;;;;;;3.90;2.05;;;24.50;60.20;;;;;;5014114;28;20034;-71
2022/08/10 08:52:07;;;;;;;3.35;2.10;;;24.50;59.60;;;;;;4997729;28;20034;-71
2022/08/10 08:54:42;;;;;;;5.47;1.80;;;24.40;59.30;;;;;;4997392;28;20503;-70
2022/08/10 08:57:34;;;;;;;2.08;1.92;;;24.50;59.80;;;;;;5014063;28;20396;-71
2022/08/10 09:00:37;;;;;;;3.90;1.92;;;24.50;61.20;;;;;;5012672;28;20032;-71
2022/08/10 09:03:39;;;;;;;4.90;1.90;;;24.60;60.60;;;;;;5013832;28;20025;-70
2022/08/10 09:07:08;;;;;;;4.95;2.13;;;24.70;59.70;;;;;;5012109;28;20537;-71
2022/08/10 09:10:11;;;;;;;5.13;2.60;;;24.80;59.50;;;;;;4991148;28;20052;-71
2022/08/10 09:13:32;;;;;;;5.15;2.08;;;24.90;58.10;;;;;;4996451;28;20080;-71
2022/08/10 09:16:21;;;;;;;5.97;1.90;;;25.00;57.80;;;;;;4966443;28;20037;-71
2022/08/10 09:19:36;;;;;;;2.83;2.13;;;25.00;58.20;;;;;;4995469;28;20028;-71
2022/08/10 09:22:34;;;;;;;6.18;2.17;;;25.10;57.50;;;;;;4995948;28;20437;-71
2022/08/10 09:25:31;;;;;;;3.35;2.17;;;25.10;56.80;;;;;;5007992;28;20042;-71
2022/08/10 09:28:19;;;;;;;3.58;2.28;;;25.20;59.50;;;;;;5012498;28;20084;-71
2022/08/10 09:31:05;;;;;;;2.75;1.85;;;25.20;56.20;;;;;;4989632;28;20026;-70
2022/08/10 09:33:46;;;;;;;3.30;2.10;;;25.30;56.70;;;;;;4982263;28;20401;-69
2022/08/10 09:36:41;;;;;;;1.92;1.70;;;25.40;57.30;;;;;;5007345;28;20026;-69
2022/08/10 09:39:23;;;;;;;2.72;2.10;;;25.50;54.90;;;;;;4989308;28;20030;-70
2022/08/10 09:42:25;;;;;;;4.00;2.15;;;25.60;53.30;;;;;;4984834;28;20037;-70
2022/08/10 09:45:31;;;;;;;5.72;2.25;;;25.60;54.40;;;;;;4981019;28;20560;-70
2022/08/10 09:48:31;;;;;;;4.50;2.08;;;25.60;54.20;;;;;;4949143;28;20046;-71
2022/08/10 09:51:50;;;;;;;2.67;2.13;;;25.50;51.60;;;;;;5003213;28;20640;-70
2022/08/10 09:54:38;;;;;;;4.28;1.90;;;25.50;50.20;;;;;;5012156;28;20036;-71
2022/08/10 09:57:48;;;;;;;11.30;2.50;;;25.30;51.30;;;;;;5012129;28;20038;-70
2022/08/10 10:00:19;;;;;;;4.75;2.08;;;25.30;52.40;;;;;;5012134;28;20513;-69
2022/08/10 10:02:55;;;;;;;3.13;2.30;;;25.30;50.00;;;;;;5011097;28;20018;-70
2022/08/10 10:05:45;;;;;;;5.85;2.08;;;25.40;50.70;;;;;;5013313;28;20025;-70
2022/08/10 10:08:37;;;;;;;2.83;1.77;;;25.50;51.40;;;;;;5011833;28;20088;-70
2022/08/10 10:11:26;;;;;;;2.55;1.83;;;25.70;50.60;;;;;;5011011;28;20045;-69
2022/08/10 10:14:14;;;;;;;4.90;2.72;;;26.00;48.10;;;;;;4995543;28;20084;-70
2022/08/10 10:17:05;;;;;;;5.15;2.42;;;26.20;47.40;;;;;;5013006;28;20018;-70
2022/08/10 10:19:52;;;;;;;3.20;1.95;;;26.40;46.50;;;;;;4995281;28;20448;-70
2022/08/10 10:22:57;;;;;;;3.65;2.42;;;26.40;46.00;;;;;;5012719;28;20072;-70
2022/08/10 10:25:32;;;;;;;6.45;2.25;;;26.40;45.70;;;;;;5011063;28;20045;-70
2022/08/10 10:28:28;;;;;;;8.48;2.67;;;26.30;46.90;;;;;;5012680;28;20117;-70
2022/08/10 10:31:13;;;;;;;5.72;2.50;;;26.30;47.60;;;;;;5011301;28;20084;-70
2022/08/10 10:33:50;;;;;;;3.70;1.85;;;26.20;47.90;;;;;;5011404;28;20026;-69
2022/08/10 10:36:16;;;;;;;3.90;2.40;;;26.20;48.40;;;;;;5012573;28;20041;-70
2022/08/10 10:38:42;;;;;;;4.82;2.17;;;26.10;49.10;;;;;;4994893;28;20449;-69
2022/08/10 10:42:05;;;;;;;5.50;2.30;;;26.00;49.60;;;;;;4995052;28;20396;-70
2022/08/10 10:45:18;;;;;;;4.68;2.70;;;26.00;49.90;;;;;;4930067;28;20072;-70
2022/08/10 10:48:17;;;;;;;5.50;2.67;;;26.10;52.90;;;;;;5012243;28;20528;-70
2022/08/10 10:51:17;;;;;;;5.03;2.60;;;26.30;51.20;;;;;;4995003;28;20117;-70
2022/08/10 10:54:28;;;;;;;5.00;2.95;;;26.40;52.10;;;;;;4994635;28;20050;-69
2022/08/10 10:57:02;;;;;;;2.35;2.13;;;26.40;51.60;;;;;;5012157;28;20079;-69
2022/08/10 11:00:02;;;;;;;5.18;2.30;;;26.30;49.60;;;;;;5012308;28;20033;-70
2022/08/10 11:02:40;;;;;;;4.07;2.38;;;26.30;48.20;;;;;;5012225;28;20072;-70
2022/08/10 11:05:25;;;;;;;3.38;2.13;;;26.20;49.70;;;;;;5012227;28;20490;-69
2022/08/10 11:08:00;;;;;;;2.88;2.03;;;26.40;49.40;;;;;;5009567;28;20037;-68
2022/08/10 11:10:47;;;;;;;2.38;1.67;;;26.70;48.70;;;;;;4994519;28;20022;-70
2022/08/10 11:13:39;;;;;;;3.88;1.90;;;27.00;48.10;;;;;;5011645;28;20037;-69
2022/08/10 11:16:34;;;;;;;5.15;2.03;;;27.20;45.10;;;;;;4994395;28;20103;-69
2022/08/10 11:19:19;;;;;;;3.72;1.88;;;27.30;45.70;;;;;;5011818;28;20029;-69
2022/08/10 11:22:17;;;;;;;3.55;1.85;;;27.50;45.40;;;;;;4994184;28;20592;-70
2022/08/10 11:25:24;;;;;;;2.58;1.92;;;27.70;45.00;;;;;;4994180;28;20030;-69
2022/08/10 11:28:30;;;;;;;1.83;1.50;;;27.70;44.10;;;;;;5000739;28;20096;-70
2022/08/10 11:31:03;;;;;;;2.38;1.63;;;27.60;44.20;;;;;;4994220;28;20033;-70
2022/08/10 11:33:50;;;;;;;3.10;1.92;;;27.50;44.70;;;;;;4993966;28;20069;-70
2022/08/10 11:36:45;;;;;;;3.58;1.70;;;27.50;44.00;;;;;;4993860;28;20539;-69
2022/08/10 11:39:31;;;;;;;3.95;1.95;;;27.60;44.00;;;;;;5010706;28;20062;-69
2022/08/10 11:42:05;;;;;;;3.85;2.22;;;27.90;45.50;;;;;;4994307;28;20375;-69
2022/08/10 11:44:46;;;;;;;2.58;1.73;;;28.10;43.50;;;;;;4993717;28;20033;-69
2022/08/10 11:47:22;;;;;;;3.40;1.65;;;28.20;44.30;;;;;;5010114;28;20061;-70
2022/08/10 11:50:02;;;;;;;2.17;1.90;;;28.40;44.20;;;;;;4993984;28;20026;-70
2022/08/10 11:53:08;;;;;;;2.92;1.77;;;28.50;43.30;;;;;;4993543;28;20037;-70
2022/08/10 11:55:34;;;;;;;5.20;1.75;;;28.60;42.10;;;;;;4993954;28;20058;-70
2022/08/10 12:00:56;;;;;;;3.65;1.85;;;28.90;42.00;;;;;;4978846;28;20422;-69
2022/08/10 12:03:21;;;;;;;3.45;1.80;;;29.10;41.60;;;;;;4993696;28;20101;-69
2022/08/10 12:05:47;;;;;;;2.92;1.80;;;29.20;41.70;;;;;;5009697;28;20605;-68
2022/08/10 12:08:17;;;;;;;2.17;1.70;;;29.40;41.60;;;;;;5011109;28;20042;-70
2022/08/10 12:10:44;;;;;;;2.10;1.85;;;29.50;40.20;;;;;;4993930;28;20034;-70
2022/08/10 12:13:30;;;;;;;;;;;29.60;41.10;;;;;;5011433;28;20482;-70
2022/08/10 12:16:04;;;;;;;9.43;1.95;;;29.70;40.30;;;;;;4993860;28;19913;-70
2022/08/10 12:19:01;;;;;;;3.30;1.63;;;29.80;40.90;;;;;;4993674;28;20022;-70
2022/08/10 12:21:31;;;;;;;2.08;1.40;;;29.90;41.50;;;;;;5013933;28;20148;-70
2022/08/10 12:24:01;;;;;;;3.38;1.70;;;30.10;40.60;;;;;;4997310;28;20025;-70
2022/08/10 12:26:34;;;;;;;2.65;1.63;;;30.30;39.40;;;;;;4997663;28;20022;-70
2022/08/10 12:29:26;;;;;;;3.53;1.65;;;30.50;39.30;;;;;;5014065;28;20398;-70
2022/08/10 12:32:30;;;;;;;2.05;1.50;;;30.70;38.20;;;;;;4997695;28;20036;-71
2022/08/10 12:35:37;;;;;;;2.55;1.70;;;30.90;40.40;;;;;;4997223;28;20029;-70
2022/08/10 12:38:38;;;;;;;3.83;1.50;;;31.20;39.40;;;;;;4997694;28;20095;-70
2022/08/10 12:41:12;;;;;;;2.63;1.65;;;31.50;38.80;;;;;;5014023;28;20045;-71
2022/08/10 12:43:47;;;;;;;3.28;1.70;;;31.60;38.80;;;;;;4997417;28;20035;-70
2022/08/10 12:46:36;;;;;;;6.97;1.92;;;31.70;36.80;;;;;;5014118;28;20041;-71
2022/08/10 12:49:27;;;;;;;3.10;1.90;;;31.70;38.10;;;;;;5013521;28;20026;-70
2022/08/10 12:52:15;;;;;;;2.42;1.52;;;31.80;37.30;;;;;;4996914;28;20127;-70
2022/08/10 12:54:41;;;;;;;3.28;1.70;;;31.80;36.80;;;;;;4996926;28;20032;-70
2022/08/10 12:57:16;;;;;;;5.45;1.90;;;31.90;37.10;;;;;;5014478;28;20444;-70
2022/08/10 12:59:44;;;;;;;5.90;1.65;;;32.10;37.00;;;;;;5013365;28;20026;-70
2022/08/10 13:02:24;;;;;;;2.25;1.67;;;32.10;36.90;;;;;;4997092;28;20474;-69
2022/08/10 13:04:51;;;;;;;4.85;2.08;;;32.20;37.20;;;;;;4996788;28;20040;-71
2022/08/10 13:07:33;;;;;;;4.07;2.00;;;32.50;37.10;;;;;;4995624;28;20034;-70
2022/08/10 13:10:28;;;;;;;3.15;1.67;;;32.90;40.10;;;;;;4996969;28;20026;-71
2022/08/10 13:12:54;;;;;;;4.60;1.80;;;33.50;36.20;;;;;;4983785;28;20541;-70
2022/08/10 13:15:26;;;;;;;5.20;1.80;;;34.10;37.20;;;;;;4996667;28;20112;-71
2022/08/10 13:17:54;;;;;;;3.08;1.45;;;34.10;34.40;;;;;;5012810;28;20041;-71
2022/08/10 13:20:27;;;;;;;2.55;1.80;;;33.90;34.30;;;;;;4996425;28;20113;-71
2022/08/10 13:22:58;;;;;;;3.25;1.42;;;33.80;35.40;;;;;;4995979;28;20036;-71
2022/08/10 13:25:35;;;;;;;2.17;1.77;;;33.90;34.80;;;;;;4996645;28;20084;-71
2022/08/10 13:28:05;;;;;;;2.55;1.77;;;33.60;35.00;;;;;;5012762;28;20497;-71
2022/08/10 13:30:31;;;;;;;2.75;1.85;;;33.70;35.30;;;;;;4995507;28;20048;-70
2022/08/10 13:32:56;;;;;;;;;;;33.70;35.10;;;;;;4996345;28;20501;-71
2022/08/10 13:35:22;;;;;;;2.83;1.55;;;34.20;34.80;;;;;;5012497;28;19913;-71